Terminal Aerodrome Forecast
Issued by NWS

Home | Current Version | Previous Version | Text Only | Print | Product List | Glossary On
Versions: 1 2 3 4 5 6 7 8 9 10 11 12 13 14 15 16 17
000
FTUS44 KJAN 221700
TAFHKS
TAF
KHKS 221730Z 2218/2318 15005KT P6SM VCSH OVC006
     FM230000 17010KT 4SM -RA BR OVC007
     FM230500 18005KT 1 1/2SM BR OVC003
     FM230700 19004KT 1/4SM FG OVC001
     FM231500 12005KT 4SM BR VCTS SCT003 OVC015CB=

USA.gov is the U.S. government's official web portal to all federal, state and local government web resources and services.